createdAt,value
2019-05-22T00:00:26.883Z,10.70
2019-05-22T00:02:55.810Z,10.70
2019-05-22T00:05:27.613Z,10.80
2019-05-22T00:07:56.123Z,10.80
2019-05-22T00:10:26.548Z,10.80
2019-05-22T00:12:57.302Z,10.70
2019-05-22T00:15:25.791Z,10.60
2019-05-22T00:17:54.289Z,10.70
2019-05-22T00:20:25.554Z,10.70
2019-05-22T00:22:54.703Z,10.70
2019-05-22T00:25:25.749Z,10.60
2019-05-22T00:27:54.673Z,10.60
2019-05-22T00:30:25.485Z,10.70
2019-05-22T00:32:53.939Z,10.70
2019-05-22T00:35:24.295Z,10.60
2019-05-22T00:37:54.741Z,10.70
2019-05-22T00:40:24.871Z,10.70
2019-05-22T00:43:03.861Z,10.70
2019-05-22T00:45:25.833Z,10.70
2019-05-22T00:47:54.635Z,10.70
2019-05-22T00:50:33.234Z,10.70
2019-05-22T00:53:05.058Z,10.70
2019-05-22T00:55:41.498Z,10.70
2019-05-22T00:58:15.585Z,10.60
2019-05-22T01:00:45.867Z,10.70
2019-05-22T01:03:16.828Z,10.70
2019-05-22T01:05:45.370Z,10.70
2019-05-22T01:08:15.755Z,10.70
2019-05-22T01:10:47.570Z,10.80
2019-05-22T01:13:18.143Z,10.70
2019-05-22T01:15:48.227Z,10.70
2019-05-22T01:18:16.708Z,10.70
2019-05-22T01:20:48.013Z,10.60
2019-05-22T01:23:20.150Z,10.70
2019-05-22T01:25:49.431Z,10.60
2019-05-22T01:28:19.514Z,10.60
2019-05-22T01:30:50.690Z,10.60
2019-05-22T01:33:21.358Z,10.70
2019-05-22T01:35:51.535Z,10.70
2019-05-22T01:38:23.036Z,10.70
2019-05-22T01:40:54.305Z,10.60
2019-05-22T01:43:25.333Z,10.70
2019-05-22T01:45:53.672Z,10.60
2019-05-22T01:48:26.877Z,10.60
2019-05-22T01:50:57.769Z,10.60
2019-05-22T01:53:29.203Z,10.60
2019-05-22T01:55:59.592Z,10.60
2019-05-22T01:58:30.853Z,10.70
2019-05-22T02:01:00.646Z,10.70
2019-05-22T02:03:30.783Z,10.70
2019-05-22T02:06:00.883Z,10.60
2019-05-22T02:08:30.496Z,10.60
2019-05-22T02:10:59.996Z,10.60
2019-05-22T02:13:33.565Z,10.60
2019-05-22T02:16:02.255Z,10.60
2019-05-22T02:18:33.990Z,10.60
2019-05-22T02:21:04.539Z,10.60
2019-05-22T02:23:34.140Z,10.60
2019-05-22T02:26:05.902Z,10.50
2019-05-22T02:28:36.574Z,10.50
2019-05-22T02:31:07.078Z,10.60
2019-05-22T02:33:38.098Z,10.60
2019-05-22T02:36:07.711Z,10.60
2019-05-22T02:38:37.595Z,10.50
2019-05-22T02:41:08.505Z,10.60
2019-05-22T02:43:37.243Z,10.60
2019-05-22T02:46:07.484Z,10.60
2019-05-22T02:48:37.203Z,10.60
2019-05-22T02:51:07.084Z,10.60
2019-05-22T02:53:35.872Z,10.70
2019-05-22T02:56:06.507Z,10.50
2019-05-22T02:58:35.615Z,10.70
2019-05-22T03:01:06.194Z,10.70
2019-05-22T03:03:36.601Z,10.60
2019-05-22T03:06:09.185Z,10.50
2019-05-22T03:08:59.599Z,10.60
2019-05-22T03:11:35.384Z,10.50
2019-05-22T03:14:09.066Z,10.50
2019-05-22T03:16:54.232Z,10.50
2019-05-22T03:19:32.375Z,10.60
2019-05-22T03:22:03.847Z,10.60
2019-05-22T03:24:35.042Z,10.50
2019-05-22T03:27:05.510Z,10.50
2019-05-22T03:29:43.437Z,10.50
2019-05-22T03:32:12.643Z,10.50
2019-05-22T03:34:41.265Z,10.60
2019-05-22T03:37:10.163Z,10.60
2019-05-22T03:39:39.886Z,10.60
2019-05-22T03:42:09.003Z,10.60
2019-05-22T03:44:39.221Z,10.60
2019-05-22T03:47:09.384Z,10.50
2019-05-22T03:49:38.441Z,10.50
2019-05-22T03:52:09.268Z,10.60
2019-05-22T03:54:38.201Z,10.50
2019-05-22T03:57:07.605Z,10.50
2019-05-22T03:59:36.730Z,10.60
2019-05-22T04:02:05.570Z,10.60
2019-05-22T04:04:36.719Z,10.60
2019-05-22T04:07:07.242Z,10.60
2019-05-22T04:09:36.980Z,10.50
2019-05-22T04:12:06.345Z,10.60
2019-05-22T04:14:37.855Z,10.50
2019-05-22T04:17:08.238Z,10.40
2019-05-22T04:19:48.375Z,10.40
2019-05-22T04:22:08.298Z,10.50
2019-05-22T04:24:38.026Z,10.40
2019-05-22T04:27:06.857Z,10.40
2019-05-22T04:29:37.182Z,10.40
2019-05-22T04:32:17.525Z,10.40
2019-05-22T04:34:47.469Z,10.40
2019-05-22T04:37:17.486Z,10.40
2019-05-22T04:39:48.566Z,10.50
2019-05-22T04:42:18.960Z,10.40
2019-05-22T04:45:09.032Z,10.50
2019-05-22T04:47:39.337Z,10.50
2019-05-22T04:50:10.917Z,10.40
2019-05-22T04:52:39.549Z,10.40
2019-05-22T04:55:10.569Z,10.40
2019-05-22T04:57:39.447Z,10.30
2019-05-22T05:00:11.628Z,10.30
2019-05-22T05:02:40.929Z,10.40
2019-05-22T05:05:11.443Z,10.40
2019-05-22T05:07:41.953Z,10.50
2019-05-22T05:10:11.062Z,10.50
2019-05-22T05:12:41.322Z,10.50
2019-05-22T05:15:10.186Z,10.50
2019-05-22T05:17:38.982Z,10.50
2019-05-22T05:20:21.592Z,10.40
2019-05-22T05:22:48.105Z,10.50
2019-05-22T05:25:17.967Z,10.40
2019-05-22T05:27:47.657Z,10.40
2019-05-22T05:30:22.735Z,10.40
2019-05-22T05:32:51.562Z,10.40
2019-05-22T05:35:20.619Z,10.40
2019-05-22T05:37:50.074Z,10.40
2019-05-22T05:40:38.125Z,10.30
2019-05-22T05:43:07.755Z,10.40
2019-05-22T05:45:39.419Z,10.40
2019-05-22T05:48:10.533Z,10.40
2019-05-22T05:50:40.961Z,10.40
2019-05-22T05:53:14.645Z,10.40
2019-05-22T05:56:04.789Z,10.40
2019-05-22T05:58:34.589Z,10.50
2019-05-22T06:01:10.581Z,10.50
2019-05-22T06:03:41.370Z,10.50
2019-05-22T06:06:12.917Z,10.50
2019-05-22T06:08:43.230Z,10.40
2019-05-22T06:11:23.493Z,10.40
2019-05-22T06:13:52.225Z,10.50
2019-05-22T06:16:24.732Z,10.40
2019-05-22T06:18:57.045Z,10.40
2019-05-22T06:21:24.830Z,10.50
2019-05-22T06:24:03.295Z,10.40
2019-05-22T06:26:49.871Z,10.40
2019-05-22T06:29:20.210Z,10.40
2019-05-22T06:31:57.581Z,10.40
2019-05-22T06:34:26.315Z,10.40
2019-05-22T06:36:58.862Z,10.20
2019-05-22T06:39:28.189Z,10.50
2019-05-22T06:41:56.845Z,10.50
2019-05-22T06:44:36.088Z,10.50
2019-05-22T06:47:06.982Z,10.40
2019-05-22T06:49:38.153Z,10.50
2019-05-22T06:52:07.967Z,10.50
2019-05-22T06:54:37.717Z,10.30
2019-05-22T06:57:09.089Z,10.30
2019-05-22T06:59:37.971Z,10.40
2019-05-22T07:02:06.872Z,10.40
2019-05-22T07:04:36.394Z,10.30
2019-05-22T07:07:06.105Z,10.40
2019-05-22T07:09:35.370Z,10.50
2019-05-22T07:12:05.373Z,10.50
2019-05-22T07:14:34.592Z,10.40
2019-05-22T07:17:04.882Z,10.50
2019-05-22T07:19:33.932Z,10.50
2019-05-22T07:22:02.501Z,10.40
2019-05-22T07:24:31.046Z,10.50
2019-05-22T07:27:03.162Z,10.50
2019-05-22T07:29:32.648Z,10.50
2019-05-22T07:32:02.264Z,10.50
2019-05-22T07:34:31.506Z,10.40
2019-05-22T07:37:00.040Z,10.40
2019-05-22T07:39:28.739Z,10.50
2019-05-22T07:41:57.372Z,10.50
2019-05-22T07:44:25.931Z,10.50
2019-05-22T07:46:55.063Z,10.50
2019-05-22T07:49:23.857Z,10.50
2019-05-22T07:52:00.650Z,10.50
2019-05-22T07:54:23.123Z,10.50
2019-05-22T07:56:52.292Z,10.50
2019-05-22T07:59:21.897Z,10.50
2019-05-22T08:01:50.501Z,10.50
2019-05-22T08:04:19.627Z,10.50
2019-05-22T08:06:48.372Z,10.50
2019-05-22T08:09:19.910Z,10.50
2019-05-22T08:11:48.468Z,10.40
2019-05-22T08:14:18.781Z,10.40
2019-05-22T08:16:48.179Z,10.50
2019-05-22T08:19:16.739Z,10.50
2019-05-22T08:21:45.321Z,10.50
2019-05-22T08:24:14.232Z,10.50
2019-05-22T08:26:53.918Z,10.40
2019-05-22T08:29:15.482Z,10.40
2019-05-22T08:31:44.499Z,10.50
2019-05-22T08:34:14.115Z,10.50
2019-05-22T08:36:43.334Z,10.50
2019-05-22T08:39:14.259Z,10.50
2019-05-22T08:41:44.058Z,10.40
2019-05-22T08:44:16.748Z,10.50
2019-05-22T08:46:44.964Z,10.50
2019-05-22T08:49:14.181Z,10.50
2019-05-22T08:51:42.844Z,10.50
2019-05-22T08:54:13.047Z,10.50
2019-05-22T08:56:44.585Z,10.50
2019-05-22T08:59:19.341Z,10.60
2019-05-22T09:01:44.393Z,10.50
2019-05-22T09:04:13.131Z,10.60
2019-05-22T09:06:42.051Z,10.60
2019-05-22T09:09:10.537Z,10.50
2019-05-22T09:11:39.083Z,10.50
2019-05-22T09:14:07.710Z,10.50
2019-05-22T09:16:36.448Z,10.50
2019-05-22T09:19:05.162Z,10.40
2019-05-22T09:21:34.482Z,10.50
2019-05-22T09:24:04.722Z,10.60
2019-05-22T09:26:33.794Z,10.50
2019-05-22T09:29:02.435Z,10.60
2019-05-22T09:31:31.091Z,10.50
2019-05-22T09:33:59.739Z,10.60
2019-05-22T09:36:28.726Z,10.60
2019-05-22T09:38:57.205Z,10.50
2019-05-22T09:41:25.867Z,10.50
2019-05-22T09:43:54.356Z,10.50
2019-05-22T09:46:24.340Z,10.60
2019-05-22T09:48:53.046Z,10.60
2019-05-22T09:51:21.944Z,10.60
2019-05-22T09:53:51.280Z,10.60
2019-05-22T09:56:20.301Z,10.60
2019-05-22T09:58:49.156Z,10.60
2019-05-22T10:01:17.989Z,10.60
2019-05-22T10:03:47.243Z,10.60
2019-05-22T10:06:15.734Z,10.60
2019-05-22T10:08:44.516Z,10.60
2019-05-22T10:11:14.004Z,10.60
2019-05-22T10:13:45.117Z,10.60
2019-05-22T10:16:13.636Z,10.50
2019-05-22T10:18:42.097Z,10.50
2019-05-22T10:21:11.118Z,10.60
2019-05-22T10:23:40.965Z,10.60
2019-05-22T10:26:10.257Z,10.60
2019-05-22T10:28:39.546Z,10.60
2019-05-22T10:31:08.921Z,10.60
2019-05-22T10:33:38.758Z,10.60
2019-05-22T10:36:08.349Z,10.60
2019-05-22T10:38:37.061Z,10.60
2019-05-22T10:41:06.391Z,10.60
2019-05-22T10:43:35.525Z,10.50
2019-05-22T10:46:04.219Z,10.50
2019-05-22T10:48:32.788Z,10.60
2019-05-22T10:51:01.373Z,10.60
2019-05-22T10:53:34.037Z,10.60
2019-05-22T10:56:00.924Z,10.50
2019-05-22T10:58:30.204Z,10.60
2019-05-22T11:00:58.693Z,10.60
2019-05-22T11:03:27.346Z,10.60
2019-05-22T11:06:06.345Z,10.60
2019-05-22T11:08:29.556Z,10.70
2019-05-22T11:10:57.563Z,10.60
2019-05-22T11:13:26.995Z,10.60
2019-05-22T11:15:56.710Z,10.60
2019-05-22T11:18:25.363Z,10.60
2019-05-22T11:20:53.854Z,10.60
2019-05-22T11:23:22.705Z,10.60
2019-05-22T11:25:51.626Z,10.60
2019-05-22T11:28:20.092Z,10.60
2019-05-22T11:30:48.946Z,10.60
2019-05-22T11:33:17.897Z,10.70
2019-05-22T11:35:46.508Z,10.70
2019-05-22T11:38:16.029Z,10.70
2019-05-22T11:40:45.267Z,10.60
2019-05-22T11:43:14.857Z,10.70
2019-05-22T11:45:45.342Z,10.70
2019-05-22T11:48:14.256Z,10.70
2019-05-22T11:50:43.935Z,10.70
2019-05-22T11:53:14.344Z,10.70
2019-05-22T11:55:45.849Z,10.70
2019-05-22T11:58:13.577Z,10.70
2019-05-22T12:00:42.340Z,10.70
2019-05-22T12:03:12.053Z,10.80
2019-05-22T12:05:40.839Z,10.80
2019-05-22T12:08:11.244Z,10.70
2019-05-22T12:10:40.301Z,10.70
2019-05-22T12:13:09.657Z,10.70
2019-05-22T12:15:39.229Z,10.70
2019-05-22T12:18:10.402Z,10.70
2019-05-22T12:20:39.471Z,10.70
2019-05-22T12:23:08.207Z,10.70
2019-05-22T12:25:36.912Z,10.70
2019-05-22T12:28:05.729Z,10.70
2019-05-22T12:30:35.503Z,10.70
2019-05-22T12:33:12.597Z,10.70
2019-05-22T12:35:35.277Z,10.70
2019-05-22T12:38:04.979Z,10.80
2019-05-22T12:40:35.059Z,10.80
2019-05-22T12:43:04.176Z,10.80
2019-05-22T12:45:33.463Z,10.70
2019-05-22T12:48:02.718Z,10.70
2019-05-22T12:50:31.859Z,10.60
2019-05-22T12:53:06.718Z,10.70
2019-05-22T12:55:35.359Z,10.80
2019-05-22T12:58:05.788Z,10.70
2019-05-22T13:00:35.569Z,10.70
2019-05-22T13:03:04.826Z,10.80
2019-05-22T13:05:36.572Z,10.80
2019-05-22T13:08:05.979Z,10.80
2019-05-22T13:10:36.139Z,10.80
2019-05-22T13:13:04.849Z,10.80
2019-05-22T13:15:35.364Z,10.80
2019-05-22T13:18:05.745Z,10.70
2019-05-22T13:20:42.911Z,10.80
2019-05-22T13:23:09.279Z,10.80
2019-05-22T13:25:39.693Z,10.90
2019-05-22T13:28:10.839Z,10.80
2019-05-22T13:30:42.543Z,10.80
2019-05-22T13:33:15.971Z,10.80
2019-05-22T13:35:45.365Z,10.80
2019-05-22T13:38:14.817Z,10.70
2019-05-22T13:40:44.382Z,10.80
2019-05-22T13:43:13.189Z,10.70
2019-05-22T13:45:42.158Z,10.70
2019-05-22T13:48:11.499Z,10.80
2019-05-22T13:50:40.420Z,10.90
2019-05-22T13:53:10.890Z,10.90
2019-05-22T13:55:39.589Z,11.00
2019-05-22T13:58:08.978Z,11.00
2019-05-22T14:00:37.981Z,10.90
2019-05-22T14:03:07.070Z,10.90
2019-05-22T14:05:36.413Z,10.90
2019-05-22T14:08:06.611Z,10.90
2019-05-22T14:10:35.334Z,10.80
2019-05-22T14:13:04.404Z,10.70
2019-05-22T14:15:50.061Z,10.70
2019-05-22T14:18:03.748Z,10.90
2019-05-22T14:20:32.367Z,10.90
2019-05-22T14:23:01.071Z,11.00
2019-05-22T14:25:30.764Z,11.00
2019-05-22T14:27:59.326Z,11.20
2019-05-22T14:30:28.654Z,11.30
2019-05-22T14:33:03.839Z,11.40
2019-05-22T14:35:46.995Z,11.70
2019-05-22T14:38:01.841Z,11.60
2019-05-22T14:40:32.415Z,11.80
2019-05-22T14:43:01.280Z,11.90
2019-05-22T14:45:30.422Z,12.10
2019-05-22T14:47:59.032Z,12.20
2019-05-22T14:50:32.373Z,12.20
2019-05-22T14:52:58.978Z,12.20
2019-05-22T14:55:28.370Z,12.40
2019-05-22T14:57:57.074Z,12.50
2019-05-22T15:00:27.255Z,12.60
2019-05-22T15:02:58.504Z,12.80
2019-05-22T15:05:26.402Z,12.80
2019-05-22T15:07:54.967Z,12.90
2019-05-22T15:10:26.561Z,12.90
2019-05-22T15:12:55.099Z,12.90
2019-05-22T15:15:24.163Z,13.00
2019-05-22T15:17:52.823Z,13.00
2019-05-22T15:20:25.417Z,13.00
2019-05-22T15:22:56.236Z,13.10
2019-05-22T15:25:25.132Z,13.10
2019-05-22T15:27:53.716Z,13.10
2019-05-22T15:30:22.410Z,13.10
2019-05-22T15:32:51.061Z,13.10
2019-05-22T15:35:20.172Z,13.10
2019-05-22T15:37:49.236Z,13.20
2019-05-22T15:40:19.272Z,13.10
2019-05-22T15:42:48.162Z,13.10
2019-05-22T15:45:23.117Z,13.10
2019-05-22T15:47:56.351Z,13.00
2019-05-22T15:50:30.295Z,12.90
2019-05-22T15:53:04.099Z,13.00
2019-05-22T15:55:33.898Z,12.90
2019-05-22T15:58:05.282Z,12.80
2019-05-22T16:00:36.574Z,12.90
2019-05-22T16:03:15.172Z,12.80
2019-05-22T16:05:45.143Z,12.80
2019-05-22T16:08:14.826Z,12.70
2019-05-22T16:10:46.571Z,12.70
2019-05-22T16:13:17.219Z,12.60
2019-05-22T16:15:49.013Z,12.70
2019-05-22T16:18:20.197Z,12.60
2019-05-22T16:20:49.633Z,12.60
2019-05-22T16:23:21.703Z,12.60
2019-05-22T16:25:51.071Z,12.60
2019-05-22T16:28:20.268Z,12.60
2019-05-22T16:30:48.916Z,12.60
2019-05-22T16:33:18.446Z,12.60
2019-05-22T16:35:47.498Z,12.50
2019-05-22T16:38:16.804Z,12.60
2019-05-22T16:40:45.994Z,12.50
2019-05-22T16:43:15.416Z,12.50
2019-05-22T16:45:44.179Z,12.60
2019-05-22T16:48:27.749Z,12.50
2019-05-22T16:50:46.226Z,12.50
2019-05-22T16:53:16.100Z,12.40
2019-05-22T16:55:45.341Z,12.40
2019-05-22T16:58:15.215Z,12.40
2019-05-22T17:00:45.330Z,12.40
2019-05-22T17:03:15.952Z,12.40
2019-05-22T17:05:45.059Z,12.30
2019-05-22T17:08:14.941Z,12.30
2019-05-22T17:10:43.614Z,12.30
2019-05-22T17:13:14.698Z,12.20
2019-05-22T17:15:43.879Z,12.30
2019-05-22T17:18:15.415Z,12.30
2019-05-22T17:20:44.796Z,12.20
2019-05-22T17:23:13.823Z,12.20
2019-05-22T17:25:43.431Z,12.20
2019-05-22T17:28:12.290Z,12.30
2019-05-22T17:30:41.231Z,12.20
2019-05-22T17:33:10.812Z,12.20
2019-05-22T17:35:40.610Z,12.20
2019-05-22T17:38:10.569Z,12.30
2019-05-22T17:40:40.221Z,12.20
2019-05-22T17:43:10.251Z,12.20
2019-05-22T17:45:40.408Z,12.10
2019-05-22T17:48:09.445Z,12.10
2019-05-22T17:50:38.107Z,12.20
2019-05-22T17:53:07.497Z,12.20
2019-05-22T17:55:37.689Z,12.10
2019-05-22T17:58:07.170Z,12.10
2019-05-22T18:00:37.869Z,12.10
2019-05-22T18:03:07.039Z,12.10
2019-05-22T18:05:36.664Z,12.00
2019-05-22T18:08:05.987Z,12.00
2019-05-22T18:10:40.469Z,12.00
2019-05-22T18:13:09.869Z,11.80
2019-05-22T18:15:38.861Z,11.70
2019-05-22T18:18:09.411Z,11.70
2019-05-22T18:20:43.250Z,11.50
2019-05-22T18:23:08.963Z,11.40
2019-05-22T18:25:37.891Z,11.30
2019-05-22T18:28:07.441Z,11.20
2019-05-22T18:30:37.805Z,11.20
2019-05-22T18:33:07.295Z,11.10
2019-05-22T18:35:36.259Z,11.00
2019-05-22T18:38:05.149Z,11.00
2019-05-22T18:40:34.094Z,11.00
2019-05-22T18:43:02.562Z,10.90
2019-05-22T18:45:32.758Z,10.80
2019-05-22T18:48:01.317Z,10.70
2019-05-22T18:50:29.947Z,10.70
2019-05-22T18:52:58.557Z,10.70
2019-05-22T18:55:27.514Z,10.60
2019-05-22T18:57:56.153Z,10.50
2019-05-22T19:00:26.547Z,10.50
2019-05-22T19:02:55.461Z,10.40
2019-05-22T19:05:27.582Z,10.40
2019-05-22T19:07:56.153Z,10.40
2019-05-22T19:10:25.410Z,10.30
2019-05-22T19:12:54.021Z,10.20
2019-05-22T19:15:23.547Z,10.10
2019-05-22T19:17:52.076Z,10.10
2019-05-22T19:20:20.561Z,10.20
2019-05-22T19:22:59.604Z,10.20
2019-05-22T19:25:19.822Z,10.20
2019-05-22T19:27:48.727Z,10.10
2019-05-22T19:30:19.517Z,10.10
2019-05-22T19:32:48.798Z,10.10
2019-05-22T19:35:17.545Z,9.90
2019-05-22T19:37:46.939Z,9.80
2019-05-22T19:40:17.606Z,9.80
2019-05-22T19:42:46.232Z,9.80
2019-05-22T19:45:15.659Z,9.80
2019-05-22T19:47:52.809Z,9.80
2019-05-22T19:50:23.911Z,9.80
2019-05-22T19:52:54.859Z,9.80
2019-05-22T19:55:25.911Z,9.90
2019-05-22T19:57:55.020Z,10.00
2019-05-22T20:00:23.565Z,9.80
2019-05-22T20:02:52.949Z,9.80
2019-05-22T20:05:22.821Z,9.90
2019-05-22T20:07:51.940Z,9.90
2019-05-22T20:10:21.759Z,9.80
2019-05-22T20:12:50.649Z,9.70
2019-05-22T20:15:19.835Z,9.80
2019-05-22T20:17:48.452Z,9.80
2019-05-22T20:20:19.798Z,9.80
2019-05-22T20:22:49.610Z,9.70
2019-05-22T20:25:20.401Z,9.50
2019-05-22T20:27:49.004Z,9.30
2019-05-22T20:30:20.174Z,9.30
2019-05-22T20:32:49.948Z,9.40
2019-05-22T20:35:18.651Z,9.30
2019-05-22T20:37:47.671Z,9.40
2019-05-22T20:40:18.410Z,9.40
2019-05-22T20:42:46.946Z,9.50
2019-05-22T20:45:17.516Z,9.50
2019-05-22T20:47:46.865Z,9.40
2019-05-22T20:50:15.671Z,9.50
2019-05-22T20:52:45.503Z,9.50
2019-05-22T20:55:14.700Z,9.50
2019-05-22T20:57:44.014Z,9.50
2019-05-22T21:00:14.957Z,9.40
2019-05-22T21:02:45.451Z,9.40
2019-05-22T21:05:16.136Z,9.40
2019-05-22T21:07:49.740Z,9.30
2019-05-22T21:10:22.537Z,9.40
2019-05-22T21:12:51.851Z,9.30
2019-05-22T21:15:22.067Z,9.40
2019-05-22T21:17:52.179Z,9.20
2019-05-22T21:20:22.376Z,9.20
2019-05-22T21:22:51.932Z,9.30
2019-05-22T21:25:20.745Z,9.30
2019-05-22T21:27:49.377Z,9.30
2019-05-22T21:30:19.204Z,9.20
2019-05-22T21:32:49.018Z,9.20
2019-05-22T21:35:19.206Z,9.20
2019-05-22T21:37:47.900Z,9.20
2019-05-22T21:40:19.880Z,9.20
2019-05-22T21:42:49.103Z,9.20
2019-05-22T21:45:18.135Z,9.10
2019-05-22T21:47:46.833Z,9.10
2019-05-22T21:50:16.738Z,9.10
2019-05-22T21:52:45.734Z,9.10
2019-05-22T21:55:16.018Z,9.10
2019-05-22T21:57:45.778Z,9.00
2019-05-22T22:00:24.664Z,9.10
2019-05-22T22:02:55.873Z,9.00
2019-05-22T22:05:25.343Z,9.00
2019-05-22T22:07:54.174Z,8.90
2019-05-22T22:10:22.707Z,8.90
2019-05-22T22:12:52.250Z,8.90
2019-05-22T22:15:22.143Z,8.80
2019-05-22T22:17:52.939Z,8.90
2019-05-22T22:20:22.145Z,8.80
2019-05-22T22:22:51.334Z,8.80
2019-05-22T22:25:22.122Z,8.80
2019-05-22T22:27:50.719Z,8.80
2019-05-22T22:30:24.065Z,8.70
2019-05-22T22:32:54.228Z,8.70
2019-05-22T22:35:23.059Z,8.70
2019-05-22T22:37:51.641Z,8.70
2019-05-22T22:40:24.313Z,8.70
2019-05-22T22:42:54.317Z,8.80
2019-05-22T22:45:35.417Z,8.70
2019-05-22T22:48:04.531Z,8.70
2019-05-22T22:50:32.991Z,8.70
2019-05-22T22:53:03.976Z,8.70
2019-05-22T22:55:33.806Z,8.70
2019-05-22T22:58:15.979Z,7.00
2019-05-22T23:00:34.277Z,8.50
2019-05-22T23:03:04.247Z,8.50
2019-05-22T23:12:53.931Z,8.40
2019-05-22T23:15:24.445Z,8.20
2019-05-22T23:17:53.554Z,8.10
2019-05-22T23:20:21.299Z,8.10
2019-05-22T23:22:49.376Z,8.30
2019-05-22T23:25:19.416Z,8.30
2019-05-22T23:27:48.510Z,8.40
2019-05-22T23:30:18.599Z,8.40
2019-05-22T23:32:47.195Z,8.40
2019-05-22T23:35:17.183Z,8.30
2019-05-22T23:37:46.281Z,8.30
2019-05-22T23:40:18.626Z,8.30
2019-05-22T23:42:48.172Z,8.30
2019-05-22T23:45:20.518Z,8.30
2019-05-22T23:48:05.589Z,8.20
2019-05-22T23:50:36.846Z,8.10
2019-05-22T23:53:05.818Z,8.10
2019-05-22T23:55:35.182Z,8.10
2019-05-22T23:58:05.475Z,8.20
